• Join FlightAware (Why Join?)
  • Login
  • US Flag 
03:56PM EDT


 

Airport Tracker/Info


-or-


 

Live Flight TrackerFlight Track Log ✈ ASQ4633 ✈ 26-Apr-2013 ✈ KEWR - KBTV

Flight Track Log - Related Links

Times and Time Zones

All times are in EDT time to prevent confusion due to time zone crossing. See the ASQ4633 flight status page for this flight to view local times or setup timezone preferences in your user account.

Time Position Orientation Groundspeed Altitude Reporting Facility
EDT Latitude Longitude Course Direction KTS MPH feet Rate Location/Type
02:01PM 40.7000 -74.1500 40° Northeast 166 191 1,100  Level New York TRACON
02:02PM 40.7500 -74.1167 27° Northeast 223 257 2,900 2,100 Climbing New York TRACON
02:03PM 40.8167 -74.0667 30° Northeast 251 289 5,400 2,100 Climbing New York TRACON
02:04PM 40.8333 -73.9833 75° East 260 299 7,100 1,680 Climbing New York TRACON
02:05PM 41.0312 -73.7817 40° Northeast  Level FlightAware Approximate
02:06PM 41.1026 -73.7013 40° Northeast  Level FlightAware Approximate
02:06PM 40.8794 -73.7742 74° East 280 322 10,600  Level Boston Center
02:07PM 40.9594 -73.7125 30° Northeast 294 338 12,000 1,380 Climbing Boston Center
02:08PM 41.0372 -73.6536 30° Northeast 319 367 13,400 1,500 Climbing Boston Center
02:09PM 41.1317 -73.5839 29° Northeast 351 404 15,100 1,620 Climbing Boston Center
02:10PM 41.2200 -73.5136 31° Northeast 356 410 16,700 1,380 Climbing Boston Center
02:11PM 41.3100 -73.4458 29° Northeast 356 410 17,900 1,080 Climbing Boston Center
02:12PM 41.4025 -73.3756 30° Northeast 368 423 18,900 1,020 Climbing Boston Center
02:13PM 41.4967 -73.2992 31° Northeast 382 440 20,000 1,140 Climbing Boston Center
02:14PM 41.5886 -73.2894 North 366 421 21,200 1,320 Climbing Boston Center
02:15PM 41.6928 -73.2908 359° North 366 421 22,700 1,500 Climbing Boston Center
02:16PM 41.7969 -73.2978 357° North 366 421 24,300 1,140 Climbing Boston Center
02:17PM 41.8989 -73.3019 358° North 366 421 25,000 300 Climbing Boston Center
02:18PM 42.0114 -73.3061 358° North 373 429 25,000  Level Boston Center
02:19PM 42.1283 -73.3106 358° North 397 457 25,000  Level Boston Center
02:20PM 42.2575 -73.3181 358° North 410 472 25,000  Level Boston Center
02:21PM 42.3783 -73.3169 360° North 416 479 25,000  Level Boston Center
02:22PM 42.4969 -73.3214 358° North 426 490 25,000  Level Boston Center
02:23PM 42.6117 -73.3317 356° North 421 484 25,000  Level Boston Center
02:24PM 42.7303 -73.3361 358° North 421 484 25,000  Level Boston Center
02:25PM 42.8492 -73.3433 357° North 421 484 25,000  Level Boston Center
02:26PM 42.9658 -73.3453 359° North 421 484 25,000 -240 Level Boston Center
02:27PM 43.0867 -73.3383 North 421 484 24,600 -540 Descending Boston Center
02:28PM 43.2056 -73.3231 North 421 484 24,000 -300 Descending Boston Center
02:29PM 43.3203 -73.3106 North 421 484 24,000  Level Boston Center
02:30PM 43.3892 -73.3058 North 421 484 24,000 -900 Level Boston Center
02:31PM 43.5372 -73.2850 North 411 473 22,300 -2,400 Descending Boston Center
02:32PM 43.6478 -73.2722 North 404 465 19,300 -2,820 Descending Boston Center
02:33PM 43.7561 -73.2592 North 395 455 16,700 -2,820 Descending Boston Center
02:34PM 43.8583 -73.2464 North 375 432 13,700 -2,520 Descending Boston Center
02:35PM 43.9564 -73.2361 North 357 411 11,700 -1,500 Descending Boston Center
02:36PM 44.0378 -73.2256 North 315 362 10,700 -900 Descending Boston Center
02:37PM 44.1150 -73.2181 North 285 328 9,900 -1,080 Descending Boston Center
02:39PM 44.2506 -73.2022 North 242 278 7,600 -1,320 Descending Boston Center
02:40PM 44.3008 -73.1333 44° Northeast 224 258 6,100 -1,680 Descending Boston Center
02:41PM 44.3511 -73.0817 36° Northeast 219 252 4,300 -1,800 Descending Boston Center